Time;durP1;ratioP1;P1;durP2;ratioP2;P2;SDS_P1;SDS_P2;PMS_P1;PMS_P2;Temp;Humidity;BMP_temperature;BMP_pressure;BME280_temperature;BME280_humidity;BME280_pressure;Samples;Min_cycle;Max_cycle;Signal;HPM_P1;HPM_P2
2021/10/21 00:00:02;;;;;;;12.13;7.53;;;14.00;99.90;;;;;;5073214;28;20133;-67
2021/10/21 00:02:28;;;;;;;11.00;7.88;;;13.90;99.90;;;;;;5072987;28;20031;-67
2021/10/21 00:04:53;;;;;;;11.25;7.50;;;13.90;99.90;;;;;;5072437;28;20016;-67
2021/10/21 00:07:19;;;;;;;8.75;7.75;;;13.90;99.90;;;;;;5075503;28;20461;-67
2021/10/21 00:09:45;;;;;;;11.75;9.07;;;14.00;99.90;;;;;;5076170;28;20090;-67
2021/10/21 00:12:10;;;;;;;14.13;9.27;;;13.90;99.90;;;;;;5076277;28;20071;-67
2021/10/21 00:14:36;;;;;;;11.75;9.23;;;14.10;99.90;;;;;;5074187;28;20025;-67
2021/10/21 00:17:02;;;;;;;9.63;8.25;;;14.00;99.90;;;;;;5074082;28;20024;-67
2021/10/21 00:19:28;;;;;;;15.05;9.50;;;14.00;99.90;;;;;;5073187;28;20462;-67
2021/10/21 00:21:54;;;;;;;13.40;9.38;;;14.10;99.90;;;;;;5072897;28;20013;-67
2021/10/21 00:24:20;;;;;;;12.52;9.00;;;14.00;99.90;;;;;;5072418;28;20028;-67
2021/10/21 00:26:47;;;;;;;10.00;9.00;;;14.00;99.90;;;;;;5072506;28;20077;-67
2021/10/21 00:29:13;;;;;;;10.15;9.13;;;13.90;99.90;;;;;;5072251;28;20059;-67
2021/10/21 00:31:38;;;;;;;11.45;9.35;;;13.90;99.90;;;;;;5072573;28;20060;-67
2021/10/21 00:34:04;;;;;;;12.25;9.27;;;13.90;99.90;;;;;;5072015;28;20021;-67
2021/10/21 00:36:30;;;;;;;13.98;9.88;;;13.90;99.90;;;;;;5071535;28;20035;-67
2021/10/21 00:38:56;;;;;;;13.45;10.20;;;14.00;99.90;;;;;;5072621;28;20028;-68
2021/10/21 00:41:22;;;;;;;15.23;10.20;;;14.00;99.90;;;;;;5073008;28;20025;-68
2021/10/21 00:43:48;;;;;;;11.27;10.05;;;14.00;99.90;;;;;;5077748;28;20477;-68
2021/10/21 00:46:15;;;;;;;14.70;11.05;;;13.90;99.90;;;;;;5085877;28;20024;-68
2021/10/21 00:48:42;;;;;;;13.98;11.50;;;14.00;99.90;;;;;;5067143;28;20129;-67
2021/10/21 00:51:14;;;;;;;13.05;10.88;;;14.00;99.90;;;;;;5060947;28;20056;-67
2021/10/21 00:53:42;;;;;;;12.95;10.70;;;14.00;99.90;;;;;;5052924;28;20433;-68
2021/10/21 00:56:12;;;;;;;11.35;10.15;;;13.90;99.90;;;;;;5051986;28;20029;-67
2021/10/21 00:58:39;;;;;;;15.32;11.55;;;13.90;99.90;;;;;;5052895;28;20386;-68
2021/10/21 01:01:05;;;;;;;14.82;10.77;;;13.80;99.90;;;;;;5053390;28;20013;-67
2021/10/21 01:03:31;;;;;;;15.48;11.18;;;13.80;99.90;;;;;;5052651;28;20469;-67
2021/10/21 01:05:57;;;;;;;12.52;10.18;;;13.80;99.90;;;;;;5051669;28;20025;-68
2021/10/21 01:08:23;;;;;;;13.18;10.35;;;13.80;99.90;;;;;;5051850;28;20035;-68
2021/10/21 01:10:50;;;;;;;16.33;11.90;;;13.80;99.90;;;;;;5051959;28;20028;-68
2021/10/21 01:13:16;;;;;;;16.02;11.48;;;13.90;99.90;;;;;;5051949;28;20090;-68
2021/10/21 01:15:42;;;;;;;18.23;12.00;;;13.80;99.90;;;;;;5051517;28;20029;-68
2021/10/21 01:18:08;;;;;;;16.35;12.18;;;13.90;99.90;;;;;;5064057;28;20438;-69
2021/10/21 01:20:34;;;;;;;14.98;11.15;;;13.90;99.90;;;;;;5071695;28;20470;-68
2021/10/21 01:22:59;;;;;;;15.25;11.10;;;13.80;99.90;;;;;;5072006;28;20028;-68
2021/10/21 01:25:25;;;;;;;12.25;10.95;;;13.90;99.90;;;;;;5071107;28;20028;-68
2021/10/21 01:27:51;;;;;;;15.65;12.90;;;13.90;99.90;;;;;;5071570;28;20021;-67
2021/10/21 01:30:19;;;;;;;14.07;11.50;;;13.90;99.90;;;;;;5071485;28;20017;-69
2021/10/21 01:32:46;;;;;;;18.38;11.50;;;13.90;99.90;;;;;;5070509;28;20028;-67
2021/10/21 01:35:11;;;;;;;14.88;12.00;;;13.90;99.90;;;;;;5071924;28;20048;-67
2021/10/21 01:37:37;;;;;;;19.55;12.88;;;14.00;99.90;;;;;;5072111;28;20048;-67
2021/10/21 01:40:03;;;;;;;17.65;13.98;;;14.10;99.90;;;;;;5072135;28;20452;-67
2021/10/21 01:42:29;;;;;;;16.85;12.55;;;14.10;99.90;;;;;;5071896;28;20116;-67
2021/10/21 01:44:55;;;;;;;18.60;12.90;;;14.00;99.90;;;;;;5070867;28;20100;-67
2021/10/21 01:47:21;;;;;;;14.90;12.05;;;14.00;99.90;;;;;;5071943;28;20067;-67
2021/10/21 01:49:46;;;;;;;12.90;11.00;;;14.00;99.90;;;;;;5072431;28;20029;-67
2021/10/21 01:52:14;;;;;;;15.85;12.50;;;14.00;99.90;;;;;;5072377;28;20029;-67
2021/10/21 01:54:39;;;;;;;13.40;10.95;;;14.10;99.90;;;;;;5071136;28;20393;-67
2021/10/21 01:57:05;;;;;;;16.48;12.63;;;14.10;99.90;;;;;;5070755;28;20020;-67
2021/10/21 01:59:30;;;;;;;15.90;12.68;;;14.20;99.90;;;;;;5075454;28;20024;-67
2021/10/21 02:01:56;;;;;;;20.95;14.38;;;14.30;99.90;;;;;;5075341;28;20025;-67
2021/10/21 02:04:22;;;;;;;21.15;14.85;;;14.30;99.90;;;;;;5074625;28;20035;-67
2021/10/21 02:06:47;;;;;;;18.35;13.82;;;14.20;99.90;;;;;;5075237;28;20024;-67
2021/10/21 02:09:13;;;;;;;17.05;13.00;;;14.30;99.90;;;;;;5074687;28;20386;-67
2021/10/21 02:11:38;;;;;;;18.73;13.40;;;14.20;99.90;;;;;;5075352;28;20028;-68
2021/10/21 02:14:04;;;;;;;15.85;12.00;;;14.10;99.90;;;;;;5075411;28;20020;-67
2021/10/21 02:16:30;;;;;;;14.80;12.32;;;14.20;99.90;;;;;;5074872;28;20386;-67
2021/10/21 02:18:55;;;;;;;13.32;10.73;;;14.30;99.90;;;;;;5074880;28;20024;-67
2021/10/21 02:21:21;;;;;;;13.05;10.32;;;14.30;99.90;;;;;;5075186;28;20037;-67
2021/10/21 02:23:47;;;;;;;13.65;11.50;;;14.40;99.90;;;;;;5075201;28;20112;-67
2021/10/21 02:26:12;;;;;;;10.68;9.57;;;14.40;99.90;;;;;;5074068;28;20024;-67
2021/10/21 02:28:38;;;;;;;11.70;10.02;;;14.40;99.90;;;;;;5074482;28;20489;-67
2021/10/21 02:31:04;;;;;;;15.50;10.68;;;14.50;99.90;;;;;;5074829;28;20470;-67
2021/10/21 02:33:29;;;;;;;14.57;10.25;;;14.50;99.90;;;;;;5074524;28;20470;-67
2021/10/21 02:35:55;;;;;;;10.75;9.65;;;14.50;99.90;;;;;;5073926;28;20482;-68
2021/10/21 02:38:21;;;;;;;12.02;9.40;;;14.50;99.90;;;;;;5074520;28;20025;-67
2021/10/21 02:40:47;;;;;;;10.80;9.50;;;14.60;99.90;;;;;;5073364;28;20031;-66
2021/10/21 02:43:13;;;;;;;10.52;9.43;;;14.70;99.90;;;;;;5074484;28;20028;-67
2021/10/21 02:45:40;;;;;;;10.90;8.60;;;14.60;99.90;;;;;;5074236;28;20016;-67
2021/10/21 02:48:06;;;;;;;10.07;8.73;;;14.60;99.90;;;;;;5074174;28;20109;-67
2021/10/21 02:50:32;;;;;;;10.60;9.45;;;14.60;99.90;;;;;;5074457;28;20154;-67
2021/10/21 02:52:57;;;;;;;11.32;8.77;;;14.60;99.90;;;;;;5074614;28;20111;-68
2021/10/21 02:55:23;;;;;;;11.63;8.35;;;14.70;99.90;;;;;;5073679;28;20025;-66
2021/10/21 02:57:49;;;;;;;9.95;7.85;;;14.60;99.90;;;;;;5074237;28;20100;-66
2021/10/21 03:00:15;;;;;;;13.13;7.57;;;14.70;99.90;;;;;;5074344;28;20107;-69
2021/10/21 03:02:41;;;;;;;9.23;7.60;;;14.80;99.90;;;;;;5073953;28;20025;-67
2021/10/21 03:05:07;;;;;;;8.25;7.05;;;14.80;99.90;;;;;;5073420;28;20030;-66
2021/10/21 03:07:33;;;;;;;9.23;7.68;;;14.90;99.90;;;;;;5074204;28;20440;-66
2021/10/21 03:09:59;;;;;;;10.13;7.22;;;14.90;99.90;;;;;;5073556;28;20025;-68
2021/10/21 03:12:24;;;;;;;8.45;7.22;;;15.00;99.90;;;;;;5073913;28;20032;-67
2021/10/21 03:14:50;;;;;;;8.07;7.13;;;15.00;99.90;;;;;;5073818;28;20435;-66
2021/10/21 03:17:16;;;;;;;10.45;7.28;;;14.90;99.90;;;;;;5073637;28;20135;-67
2021/10/21 03:19:41;;;;;;;7.03;6.32;;;14.90;99.90;;;;;;5074094;28;20104;-68
2021/10/21 03:22:07;;;;;;;7.43;5.32;;;15.00;99.90;;;;;;5073972;28;20470;-67
2021/10/21 03:24:33;;;;;;;5.75;5.05;;;14.90;99.90;;;;;;5073371;28;20031;-67
2021/10/21 03:26:58;;;;;;;4.15;3.85;;;14.90;99.90;;;;;;5073879;28;20078;-67
2021/10/21 03:29:24;;;;;;;4.13;3.45;;;14.90;99.90;;;;;;5074362;28;20078;-67
2021/10/21 03:31:50;;;;;;;2.30;2.10;;;15.00;99.90;;;;;;5087539;28;20052;-67
2021/10/21 03:34:15;;;;;;;3.92;2.53;;;15.10;99.90;;;;;;5080827;28;20040;-67
2021/10/21 03:36:41;;;;;;;1.92;1.33;;;15.20;99.90;;;;;;5074515;28;20078;-67
2021/10/21 03:39:07;;;;;;;2.80;1.00;;;15.20;99.90;;;;;;5073681;28;20032;-67
2021/10/21 03:41:33;;;;;;;2.15;1.02;;;15.30;99.90;;;;;;5073505;28;20024;-67
2021/10/21 03:43:58;;;;;;;1.40;0.77;;;15.30;99.90;;;;;;5073805;28;20111;-67
2021/10/21 03:46:24;;;;;;;0.80;0.80;;;15.20;99.90;;;;;;5072828;28;20100;-67
2021/10/21 03:48:50;;;;;;;3.25;1.20;;;15.20;99.90;;;;;;5073079;28;20037;-67
2021/10/21 03:51:15;;;;;;;0.80;0.80;;;15.30;99.90;;;;;;5073245;28;20044;-67
2021/10/21 03:53:41;;;;;;;1.13;0.80;;;15.40;99.90;;;;;;5072291;28;20021;-67
2021/10/21 03:56:09;;;;;;;4.00;0.93;;;15.30;99.90;;;;;;5072770;28;20112;-66
2021/10/21 03:58:35;;;;;;;1.52;0.88;;;15.20;99.90;;;;;;5073220;28;20070;-67
2021/10/21 04:01:01;;;;;;;2.90;0.70;;;15.20;99.90;;;;;;5073154;28;20459;-67
2021/10/21 04:03:27;;;;;;;0.90;0.55;;;15.10;99.90;;;;;;5073240;28;20059;-67
2021/10/21 04:05:52;;;;;;;3.03;0.77;;;15.20;99.90;;;;;;5071456;28;20059;-67
2021/10/21 04:08:18;;;;;;;0.98;0.70;;;15.20;99.90;;;;;;5072865;28;20514;-67
2021/10/21 04:10:43;;;;;;;3.05;0.93;;;15.10;99.90;;;;;;5072833;28;20063;-67
2021/10/21 04:13:10;;;;;;;2.95;0.70;;;15.00;99.90;;;;;;5072797;28;20020;-67
2021/10/21 04:15:36;;;;;;;3.25;1.17;;;14.90;99.90;;;;;;5072132;28;20041;-67
2021/10/21 04:18:01;;;;;;;4.05;1.00;;;14.90;99.90;;;;;;5072902;28;20031;-67
2021/10/21 04:20:27;;;;;;;3.80;0.90;;;14.80;99.90;;;;;;5071749;28;20021;-67
2021/10/21 04:22:53;;;;;;;4.82;0.80;;;14.80;99.90;;;;;;5070763;28;20463;-67
2021/10/21 04:25:18;;;;;;;0.90;0.60;;;14.70;99.90;;;;;;5071608;28;20065;-66
2021/10/21 04:27:44;;;;;;;3.85;1.02;;;14.70;99.90;;;;;;5070752;28;20715;-73
2021/10/21 04:30:14;;;;;;;1.63;0.70;;;14.80;99.90;;;;;;5065940;28;20028;-71
2021/10/21 04:32:40;;;;;;;3.65;0.70;;;14.80;99.90;;;;;;5072103;28;20024;-71
2021/10/21 04:35:07;;;;;;;2.58;0.80;;;14.80;99.90;;;;;;5077163;28;20688;-73
2021/10/21 04:37:33;;;;;;;1.83;0.95;;;14.60;99.90;;;;;;5071817;28;20173;-72
2021/10/21 04:39:58;;;;;;;1.85;0.70;;;14.60;99.90;;;;;;5071555;28;20134;-71
2021/10/21 04:42:24;;;;;;;1.40;0.75;;;14.50;99.90;;;;;;5072325;28;20439;-71
2021/10/21 04:44:50;;;;;;;9.10;0.75;;;14.50;99.90;;;;;;5071526;28;20035;-71
2021/10/21 04:47:16;;;;;;;0.93;0.82;;;14.40;99.90;;;;;;5080440;28;20100;-71
2021/10/21 04:49:44;;;;;;;2.08;0.80;;;14.50;99.90;;;;;;5091945;28;20060;-71
2021/10/21 04:52:09;;;;;;;3.85;0.80;;;14.50;99.90;;;;;;5092060;28;20493;-72
2021/10/21 04:54:35;;;;;;;4.25;0.68;;;14.50;99.90;;;;;;5091581;28;20036;-73
2021/10/21 04:57:01;;;;;;;2.00;0.80;;;14.50;99.90;;;;;;5086458;28;20027;-73
2021/10/21 04:59:26;;;;;;;2.58;0.70;;;14.50;99.90;;;;;;5072433;28;20075;-73
2021/10/21 05:01:52;;;;;;;6.25;0.88;;;14.40;99.90;;;;;;5073242;28;20095;-72
2021/10/21 05:04:18;;;;;;;4.32;1.08;;;14.40;99.90;;;;;;5073209;28;20046;-72
2021/10/21 05:06:43;;;;;;;10.65;1.25;;;14.20;99.90;;;;;;5072851;28;20128;-72
2021/10/21 05:09:09;;;;;;;8.52;1.42;;;14.20;99.90;;;;;;5072466;28;20565;-72
2021/10/21 05:11:34;;;;;;;2.03;0.80;;;14.20;99.90;;;;;;5073425;28;20034;-72
2021/10/21 05:14:00;;;;;;;6.07;1.40;;;14.10;99.90;;;;;;5071733;28;20099;-72
2021/10/21 05:16:26;;;;;;;5.65;1.17;;;14.20;99.90;;;;;;5070890;28;20382;-74
2021/10/21 05:18:51;;;;;;;7.50;0.95;;;14.00;99.90;;;;;;5071667;28;20031;-74
2021/10/21 05:21:17;;;;;;;6.93;1.33;;;13.90;99.90;;;;;;5071020;28;20031;-73
2021/10/21 05:23:43;;;;;;;5.88;1.35;;;13.90;99.90;;;;;;5079551;28;20020;-75
2021/10/21 05:26:09;;;;;;;12.02;1.73;;;13.80;99.90;;;;;;5092183;28;20024;-75
2021/10/21 05:28:37;;;;;;;6.57;1.13;;;13.90;99.90;;;;;;5092204;28;20059;-74
2021/10/21 05:31:03;;;;;;;7.15;1.10;;;13.80;99.90;;;;;;5078401;28;20028;-74
2021/10/21 05:33:34;;;;;;;9.50;1.40;;;13.80;99.90;;;;;;5071451;28;20104;-73
2021/10/21 05:36:01;;;;;;;5.43;0.82;;;13.60;99.90;;;;;;5070486;28;20032;-74
2021/10/21 05:38:27;;;;;;;4.40;0.88;;;13.60;99.90;;;;;;5069920;28;20031;-75
2021/10/21 05:40:52;;;;;;;8.18;1.42;;;13.60;99.90;;;;;;5070467;28;20099;-73
2021/10/21 05:43:21;;;;;;;6.95;1.25;;;13.50;99.90;;;;;;5071513;28;20119;-74
2021/10/21 05:45:47;;;;;;;5.43;1.20;;;13.60;99.90;;;;;;5070510;28;20099;-73
2021/10/21 05:48:15;;;;;;;6.43;1.58;;;13.60;99.90;;;;;;5071087;28;20467;-73
2021/10/21 05:50:41;;;;;;;6.68;1.15;;;13.50;99.90;;;;;;5099305;22;20050;-71
2021/10/21 05:53:06;;;;;;;6.63;1.25;;;13.50;99.90;;;;;;5062367;28;20025;-71
2021/10/21 05:55:32;;;;;;;17.67;1.42;;;13.50;99.90;;;;;;5070395;28;20103;-71
2021/10/21 05:57:58;;;;;;;10.80;1.80;;;13.50;99.90;;;;;;5071174;28;20043;-71
2021/10/21 06:00:24;;;;;;;6.80;1.25;;;13.50;99.90;;;;;;5070113;28;20028;-69
2021/10/21 06:02:49;;;;;;;7.95;1.45;;;13.50;99.90;;;;;;5051622;28;20032;-70
2021/10/21 06:05:16;;;;;;;7.57;1.35;;;13.40;99.90;;;;;;5061030;28;20390;-71
2021/10/21 06:07:41;;;;;;;10.75;1.30;;;13.50;99.90;;;;;;5060564;28;20021;-69
2021/10/21 06:10:08;;;;;;;8.13;1.27;;;13.40;99.90;;;;;;5064070;28;20032;-75
2021/10/21 06:12:33;;;;;;;7.82;1.67;;;13.40;99.90;;;;;;5051149;28;20032;-70
2021/10/21 06:15:03;;;;;;;7.32;1.73;;;13.40;99.90;;;;;;5050419;28;20029;-71
2021/10/21 06:17:28;;;;;;;5.93;1.40;;;13.40;99.90;;;;;;5050712;28;20041;-70
2021/10/21 06:19:54;;;;;;;9.98;1.88;;;13.40;99.90;;;;;;5050379;28;20036;-75
2021/10/21 06:22:20;;;;;;;9.85;1.55;;;13.40;99.90;;;;;;5050885;28;20029;-70
2021/10/21 06:24:46;;;;;;;6.68;1.33;;;13.40;99.90;;;;;;5083076;28;20020;-69
2021/10/21 06:27:12;;;;;;;18.48;2.00;;;13.40;99.90;;;;;;5090823;28;20021;-70
2021/10/21 06:29:40;;;;;;;6.38;1.67;;;13.40;99.90;;;;;;5091030;28;20162;-70
2021/10/21 06:32:07;;;;;;;10.63;1.70;;;13.40;99.90;;;;;;5090965;28;20031;-69
2021/10/21 06:34:34;;;;;;;10.88;1.65;;;13.40;99.90;;;;;;5090218;28;20048;-70
2021/10/21 06:37:19;;;;;;;8.13;1.60;;;13.40;99.90;;;;;;5090820;28;20032;-69
2021/10/21 06:39:47;;;;;;;10.52;1.65;;;13.40;99.90;;;;;;5050264;28;20017;-69
2021/10/21 06:42:13;;;;;;;9.27;1.63;;;13.40;99.90;;;;;;5049888;28;20021;-69
2021/10/21 06:44:38;;;;;;;7.75;1.58;;;13.30;99.90;;;;;;5052242;28;20056;-70
2021/10/21 06:47:04;;;;;;;15.25;1.67;;;13.20;99.90;;;;;;5054348;28;20033;-71
2021/10/21 06:49:30;;;;;;;12.25;2.00;;;13.20;99.90;;;;;;5053648;28;20033;-70
2021/10/21 06:51:56;;;;;;;7.45;1.60;;;13.20;99.90;;;;;;5053861;28;20078;-70
2021/10/21 06:54:22;;;;;;;9.88;1.60;;;13.30;99.90;;;;;;5060205;28;20036;-71
2021/10/21 06:56:47;;;;;;;11.88;2.03;;;13.20;99.90;;;;;;5073811;28;20047;-70
2021/10/21 06:59:13;;;;;;;6.55;1.70;;;13.30;99.90;;;;;;5074063;28;20021;-70
2021/10/21 07:01:41;;;;;;;10.02;1.60;;;13.20;99.90;;;;;;5073320;28;20025;-70
2021/10/21 07:04:06;;;;;;;11.40;1.77;;;13.20;99.90;;;;;;5074115;28;20089;-70
2021/10/21 07:06:32;;;;;;;13.23;2.15;;;13.20;99.90;;;;;;5072872;28;20021;-71
2021/10/21 07:08:57;;;;;;;12.77;2.15;;;13.30;99.90;;;;;;5075582;28;20034;-70
2021/10/21 07:11:23;;;;;;;10.00;1.33;;;13.30;99.90;;;;;;5075401;28;20028;-70
2021/10/21 07:13:49;;;;;;;6.80;1.10;;;13.40;99.90;;;;;;5073943;28;20059;-69
2021/10/21 07:16:14;;;;;;;10.90;1.45;;;13.60;99.90;;;;;;5072783;28;20032;-70
2021/10/21 07:18:40;;;;;;;4.80;1.10;;;13.70;99.90;;;;;;5073164;28;20040;-70
2021/10/21 07:21:07;;;;;;;11.65;1.58;;;13.90;99.90;;;;;;5073706;28;20024;-70
2021/10/21 07:23:32;;;;;;;8.02;1.83;;;13.90;99.90;;;;;;5080370;28;20470;-70
2021/10/21 07:25:58;;;;;;;7.50;1.50;;;13.90;99.90;;;;;;5093078;28;20042;-71
2021/10/21 07:28:24;;;;;;;7.97;1.50;;;13.90;99.90;;;;;;5092750;28;20397;-71
2021/10/21 07:30:53;;;;;;;3.58;1.65;;;13.80;99.90;;;;;;5087302;28;20020;-70
2021/10/21 07:33:19;;;;;;;8.85;1.70;;;13.80;99.90;;;;;;5075487;28;20032;-70
2021/10/21 07:35:45;;;;;;;5.72;1.02;;;13.80;99.90;;;;;;5076019;28;20479;-70
2021/10/21 07:38:11;;;;;;;8.00;0.90;;;13.70;99.90;;;;;;5073398;28;20024;-70
2021/10/21 07:40:36;;;;;;;7.07;1.38;;;13.70;99.90;;;;;;5073076;28;20032;-71
2021/10/21 07:43:02;;;;;;;7.13;1.27;;;13.70;99.90;;;;;;5073461;28;20115;-70
2021/10/21 07:45:28;;;;;;;5.10;1.05;;;13.70;99.90;;;;;;5074410;28;20025;-71
2021/10/21 07:47:53;;;;;;;6.35;1.20;;;13.80;99.90;;;;;;5082488;28;20048;-71
2021/10/21 07:50:19;;;;;;;3.42;0.95;;;13.90;99.90;;;;;;5081087;28;20048;-71
2021/10/21 07:52:46;;;;;;;7.43;0.93;;;14.10;99.90;;;;;;5080604;28;20107;-70
2021/10/21 07:55:13;;;;;;;6.13;1.00;;;14.70;99.90;;;;;;5076395;28;20021;-71
2021/10/21 07:57:39;;;;;;;7.07;0.98;;;14.70;99.90;;;;;;5074163;28;20024;-72
2021/10/21 08:00:07;;;;;;;5.72;1.17;;;14.60;99.90;;;;;;5073731;28;20121;-72
2021/10/21 08:02:32;;;;;;;3.45;1.02;;;14.50;99.90;;;;;;5073827;28;20021;-71
2021/10/21 08:04:58;;;;;;;8.38;1.05;;;14.40;99.90;;;;;;5072502;28;20224;-72
2021/10/21 08:07:24;;;;;;;4.85;0.77;;;14.30;99.90;;;;;;5072169;28;20031;-72
2021/10/21 08:09:50;;;;;;;4.40;0.77;;;14.30;99.90;;;;;;5072739;28;20469;-72
2021/10/21 08:12:15;;;;;;;2.67;0.70;;;14.20;99.90;;;;;;5073010;28;20028;-73
2021/10/21 08:14:44;;;;;;;1.35;0.60;;;14.20;99.90;;;;;;5072109;28;20029;-72
2021/10/21 08:17:10;;;;;;;6.55;0.95;;;14.10;99.90;;;;;;5071067;28;20473;-72
2021/10/21 08:19:35;;;;;;;6.20;0.52;;;14.10;99.90;;;;;;5070426;28;20141;-73
2021/10/21 08:22:02;;;;;;;4.63;0.52;;;14.50;99.90;;;;;;5072675;28;20013;-72
2021/10/21 08:24:28;;;;;;;4.63;0.80;;;15.00;99.90;;;;;;5082793;28;20016;-72
2021/10/21 08:26:54;;;;;;;4.40;0.80;;;15.30;99.90;;;;;;5071860;28;20398;-72
2021/10/21 08:29:24;;;;;;;1.60;0.80;;;16.70;99.90;;;;;;5071443;28;20033;-72
2021/10/21 08:32:01;;;;;;;3.78;1.10;;;16.80;99.90;;;;;;5071756;28;20039;-71
2021/10/21 08:34:27;;;;;;;2.88;0.60;;;16.20;99.90;;;;;;5071569;28;20024;-70
2021/10/21 08:36:52;;;;;;;3.72;0.60;;;15.70;99.90;;;;;;5071507;28;20056;-72
2021/10/21 08:39:18;;;;;;;2.35;1.15;;;15.30;99.90;;;;;;5071466;28;20032;-72
2021/10/21 08:41:49;;;;;;;2.45;0.50;;;15.00;99.90;;;;;;5071495;28;20490;-72
2021/10/21 08:44:15;;;;;;;1.55;0.50;;;14.80;99.90;;;;;;5070855;28;20016;-70
2021/10/21 08:46:44;;;;;;;5.45;0.60;;;14.70;99.90;;;;;;5071186;28;20024;-72
2021/10/21 08:49:11;;;;;;;1.85;0.57;;;14.60;99.90;;;;;;5070938;28;20024;-71
2021/10/21 08:51:37;;;;;;;3.35;0.50;;;14.50;99.90;;;;;;5071119;28;20016;-72
2021/10/21 08:54:04;;;;;;;1.40;0.50;;;14.30;99.90;;;;;;5071154;28;20173;-72
2021/10/21 08:56:31;;;;;;;3.65;0.70;;;14.30;99.90;;;;;;5071007;28;20375;-72
2021/10/21 08:58:57;;;;;;;3.40;0.50;;;14.20;99.90;;;;;;5071452;28;20024;-72
2021/10/21 09:01:41;;;;;;;2.85;0.47;;;14.30;99.90;;;;;;5070504;28;20016;-72
2021/10/21 09:04:42;;;;;;;4.57;1.00;;;14.50;99.90;;;;;;5071912;28;20020;-71
2021/10/21 09:09:45;;;;;;;6.38;0.63;;;14.70;99.90;;;;;;5071828;28;20379;-72
2021/10/21 09:12:17;;;;;;;2.15;0.50;;;14.90;99.90;;;;;;5071915;28;20111;-72
2021/10/21 09:14:53;;;;;;;1.83;0.63;;;15.20;99.90;;;;;;5071117;28;20035;-72
2021/10/21 09:17:25;;;;;;;4.63;0.80;;;15.10;99.90;;;;;;5071434;28;20101;-71
2021/10/21 09:19:51;;;;;;;2.35;0.63;;;14.70;99.90;;;;;;5070913;28;20024;-72
2021/10/21 09:22:28;;;;;;;3.45;0.55;;;14.40;99.90;;;;;;5070901;28;20025;-71
2021/10/21 09:24:55;;;;;;;4.47;0.45;;;14.20;99.90;;;;;;5087889;28;20028;-72
2021/10/21 09:27:24;;;;;;;2.08;0.43;;;14.10;99.90;;;;;;5091598;28;20028;-71
2021/10/21 09:29:55;;;;;;;3.10;0.50;;;14.10;99.90;;;;;;5091518;28;20047;-71
2021/10/21 09:32:28;;;;;;;2.97;0.40;;;13.80;99.90;;;;;;5091407;28;20039;-72
2021/10/21 09:35:03;;;;;;;2.08;0.60;;;13.60;99.90;;;;;;5089929;28;20024;-72
2021/10/21 09:37:41;;;;;;;2.17;0.40;;;13.20;99.90;;;;;;5091382;28;20157;-71
2021/10/21 09:40:10;;;;;;;3.80;0.40;;;13.40;99.90;;;;;;5090810;28;20024;-71
2021/10/21 09:42:44;;;;;;;1.63;0.30;;;14.60;99.90;;;;;;5091203;28;20482;-72
2021/10/21 09:45:15;;;;;;;0.40;0.20;;;16.10;99.90;;;;;;5071975;28;20033;-72
2021/10/21 09:47:45;;;;;;;3.33;0.40;;;16.70;99.90;;;;;;5069871;28;20052;-71
2021/10/21 09:50:40;;;;;;;1.88;0.70;;;16.60;99.90;;;;;;5070514;28;20044;-72
2021/10/21 09:53:10;;;;;;;0.65;0.30;;;16.00;99.90;;;;;;5069642;28;20042;-72
2021/10/21 09:55:37;;;;;;;1.42;0.35;;;14.90;99.90;;;;;;5070178;28;20024;-72
2021/10/21 09:58:06;;;;;;;1.77;0.43;;;14.30;99.90;;;;;;5070494;28;20029;-71
2021/10/21 10:00:34;;;;;;;3.22;0.50;;;13.80;99.90;;;;;;5069038;28;20023;-71
2021/10/21 10:03:14;;;;;;;1.67;0.40;;;13.70;99.90;;;;;;5069940;28;20036;-72
2021/10/21 10:05:50;;;;;;;0.55;0.32;;;13.60;99.90;;;;;;5070447;28;20025;-73
2021/10/21 10:08:23;;;;;;;2.78;0.35;;;13.70;99.90;;;;;;5070922;28;20471;-72
2021/10/21 10:10:51;;;;;;;3.42;0.80;;;14.30;99.90;;;;;;5070881;28;20028;-72
2021/10/21 10:13:19;;;;;;;185.80;116.55;;;14.60;99.90;;;;;;5071099;28;20024;-72
2021/10/21 10:15:47;;;;;;;3.22;1.00;;;15.10;99.90;;;;;;5070570;28;20490;-73
2021/10/21 10:18:27;;;;;;;5.72;1.48;;;15.50;99.90;;;;;;5071582;28;20086;-72
2021/10/21 10:21:07;;;;;;;1.75;1.65;;;16.50;99.90;;;;;;5075331;28;20021;-72
2021/10/21 10:23:34;;;;;;;2.20;0.70;;;16.90;99.90;;;;;;5080863;28;20470;-72
2021/10/21 10:26:00;;;;;;;0.57;0.30;;;16.30;99.90;;;;;;5094443;28;20024;-72
2021/10/21 10:28:49;;;;;;;1.45;0.50;;;15.80;99.90;;;;;;5093278;28;20030;-72
2021/10/21 10:31:42;;;;;;;1.60;0.50;;;15.60;99.90;;;;;;5093298;28;20089;-72
2021/10/21 10:34:08;;;;;;;;;;;15.70;99.90;;;;;;5095284;28;20072;-72
2021/10/21 10:36:36;;;;;;;2.05;0.30;;;16.10;99.90;;;;;;5094270;28;19958;-72
2021/10/21 10:39:06;;;;;;;2.35;0.30;;;15.80;99.90;;;;;;5090837;28;20017;-72
2021/10/21 10:41:44;;;;;;;1.20;0.40;;;16.70;99.90;;;;;;5073833;28;20024;-72
2021/10/21 10:44:35;;;;;;;0.60;0.60;;;17.70;99.90;;;;;;5074471;28;20024;-73
2021/10/21 10:47:02;;;;;;;0.85;0.35;;;18.50;99.90;;;;;;5074508;28;20032;-72
2021/10/21 10:49:37;;;;;;;1.80;0.40;;;18.30;99.90;;;;;;5074024;28;20169;-72
2021/10/21 10:52:04;;;;;;;1.60;0.40;;;18.80;99.90;;;;;;5074573;28;20045;-73
2021/10/21 10:54:39;;;;;;;1.20;0.35;;;18.70;99.90;;;;;;5073804;28;20040;-73
2021/10/21 10:57:12;;;;;;;0.75;0.45;;;19.20;99.90;;;;;;5073801;28;20107;-72
2021/10/21 10:59:40;;;;;;;2.42;0.52;;;19.50;98.60;;;;;;5074481;28;20020;-72
2021/10/21 11:02:30;;;;;;;0.93;0.77;;;18.90;97.90;;;;;;5073744;28;20017;-73
2021/10/21 11:05:00;;;;;;;1.48;0.50;;;18.30;98.60;;;;;;5073573;28;20490;-72
2021/10/21 11:07:28;;;;;;;0.55;0.30;;;18.20;99.90;;;;;;5073130;28;20028;-72
2021/10/21 11:10:14;;;;;;;0.80;0.50;;;18.50;99.40;;;;;;5073699;28;20046;-72
2021/10/21 11:12:40;;;;;;;0.75;0.32;;;19.00;97.80;;;;;;5073744;28;20024;-72
2021/10/21 11:15:28;;;;;;;1.80;0.40;;;18.90;97.90;;;;;;5073078;28;20074;-72
2021/10/21 11:17:54;;;;;;;1.00;0.30;;;19.40;96.80;;;;;;5054674;28;20036;-73
2021/10/21 11:20:31;;;;;;;1.58;0.40;;;19.90;96.00;;;;;;5065048;28;20033;-71
2021/10/21 11:23:07;;;;;;;4.32;0.40;;;19.70;96.00;;;;;;5075113;28;20528;-72
2021/10/21 11:25:37;;;;;;;1.85;0.50;;;19.90;95.40;;;;;;5092789;28;20044;-73
2021/10/21 11:28:06;;;;;;;1.40;0.47;;;20.20;94.30;;;;;;5093712;28;20056;-72
2021/10/21 11:30:34;;;;;;;2.33;0.40;;;19.80;93.80;;;;;;5093275;28;20728;-71
2021/10/21 11:33:03;;;;;;;1.60;0.60;;;19.20;92.50;;;;;;5055020;28;20079;-72
2021/10/21 11:35:31;;;;;;;1.88;0.60;;;19.20;92.40;;;;;;5052683;28;20064;-72
2021/10/21 11:38:02;;;;;;;5.40;0.55;;;20.10;92.20;;;;;;5053117;28;20375;-73
2021/10/21 11:40:34;;;;;;;1.20;0.60;;;20.00;90.00;;;;;;5058006;28;20031;-72
2021/10/21 11:43:02;;;;;;;3.40;0.50;;;19.40;90.90;;;;;;5053562;28;20025;-73
2021/10/21 11:45:34;;;;;;;6.10;1.05;;;18.70;92.70;;;;;;5071747;28;20048;-73
2021/10/21 11:48:07;;;;;;;3.92;0.70;;;18.10;93.70;;;;;;5074068;28;20028;-72
2021/10/21 11:50:37;;;;;;;3.47;0.70;;;17.70;93.50;;;;;;5072995;28;20040;-72
2021/10/21 11:53:04;;;;;;;5.97;0.70;;;17.10;94.00;;;;;;5073457;28;20445;-71
2021/10/21 11:55:31;;;;;;;1.67;0.55;;;16.70;95.70;;;;;;5071384;28;20440;-72
2021/10/21 11:58:01;;;;;;;2.92;0.77;;;17.20;95.80;;;;;;5073006;28;20478;-72
2021/10/21 12:00:28;;;;;;;1.42;0.60;;;18.50;95.10;;;;;;5072821;28;20028;-73
2021/10/21 12:02:56;;;;;;;1.80;0.95;;;19.60;92.10;;;;;;5067656;28;20482;-72
2021/10/21 12:05:28;;;;;;;2.20;0.60;;;19.70;92.70;;;;;;5066864;28;20024;-72
2021/10/21 12:07:55;;;;;;;2.55;0.95;;;20.30;90.90;;;;;;5072489;28;20527;-72
2021/10/21 12:10:46;;;;;;;2.45;0.50;;;20.20;91.50;;;;;;5071940;28;20036;-71
2021/10/21 12:13:24;;;;;;;0.55;0.40;;;19.90;91.90;;;;;;5052605;28;20498;-72
2021/10/21 12:15:52;;;;;;;3.50;0.68;;;19.50;93.20;;;;;;5051828;28;20102;-77
2021/10/21 12:18:19;;;;;;;4.32;0.70;;;18.70;94.00;;;;;;5061063;28;20360;-77
2021/10/21 12:20:49;;;;;;;4.60;0.77;;;17.90;95.80;;;;;;5063891;28;20093;-76
2021/10/21 12:23:30;;;;;;;4.78;1.08;;;17.30;95.70;;;;;;5063391;28;20027;-76
2021/10/21 12:26:01;;;;;;;4.55;0.60;;;16.80;97.70;;;;;;5062957;28;20402;-78
2021/10/21 12:28:46;;;;;;;1.80;0.70;;;17.20;97.70;;;;;;5064578;28;20046;-78
2021/10/21 12:31:20;;;;;;;2.10;1.00;;;17.30;96.90;;;;;;5064336;28;20021;-76
2021/10/21 12:33:50;;;;;;;1.90;0.63;;;18.50;95.90;;;;;;5063519;28;20052;-77
2021/10/21 12:36:21;;;;;;;2.05;0.55;;;19.90;94.50;;;;;;5061378;28;20028;-76
2021/10/21 12:38:51;;;;;;;2.08;0.70;;;21.00;91.80;;;;;;5063881;28;20483;-78
2021/10/21 12:41:18;;;;;;;1.20;0.70;;;21.20;91.60;;;;;;5064526;28;20021;-78
2021/10/21 12:44:02;;;;;;;1.58;0.60;;;21.30;90.90;;;;;;5063493;28;20027;-78
2021/10/21 12:46:28;;;;;;;0.70;0.52;;;21.60;88.60;;;;;;5063535;28;20031;-80
2021/10/21 12:49:09;;;;;;;2.63;0.60;;;21.70;88.10;;;;;;5062412;28;20016;-78